Time;durP1;ratioP1;P1;durP2;ratioP2;P2;SDS_P1;SDS_P2;PMS_P1;PMS_P2;Temp;Humidity;BMP_temperature;BMP_pressure;BME280_temperature;BME280_humidity;BME280_pressure;Samples;Min_cycle;Max_cycle;Signal;HPM_P1;HPM_P2
2023/08/24 00:08:59;;;;;;;;;;;21.90;99.90;;;;;;21166830;28;19999;-77
2023/08/24 00:18:59;;;;;;;;;;;21.80;99.90;;;;;;21235335;27;19911;-77
2023/08/24 00:29:00;;;;;;;;;;;22.10;99.90;;;;;;21248632;27;19922;-77
2023/08/24 00:39:01;;;;;;;;;;;22.20;99.90;;;;;;21229330;27;20370;-77
2023/08/24 00:49:01;;;;;;;;;;;21.70;99.90;;;;;;21247464;27;20361;-76
2023/08/24 00:59:03;;;;;;;;;;;21.70;99.90;;;;;;21230347;27;19911;-76
2023/08/24 01:09:04;;;;;;;;;;;21.70;99.90;;;;;;21227602;27;19924;-76
2023/08/24 01:19:06;;;;;;;;;;;21.70;99.90;;;;;;21226525;27;20395;-76
2023/08/24 01:29:08;;;;;;;;;;;21.60;99.90;;;;;;21225617;27;19920;-77
2023/08/24 01:39:24;;;;;;;;;;;21.20;99.90;;;;;;21225601;27;19912;-76
2023/08/24 01:49:26;;;;;;;;;;;21.40;99.90;;;;;;21227384;27;19923;-77
2023/08/24 01:59:27;;;;;;;;;;;21.40;99.90;;;;;;21224917;27;20051;-77
2023/08/24 02:09:27;;;;;;;;;;;21.50;99.90;;;;;;21241606;27;19965;-76
2023/08/24 02:19:28;;;;;;;;;;;21.20;99.90;;;;;;21241871;27;19913;-76
2023/08/24 02:29:29;;;;;;;;;;;21.30;99.90;;;;;;21240163;27;19919;-76
2023/08/24 02:39:30;;;;;;;;;;;21.20;99.90;;;;;;21265595;27;19919;-76
2023/08/24 02:49:32;;;;;;;;;;;20.90;99.90;;;;;;21238259;27;19915;-76
2023/08/24 02:59:33;;;;;;;;;;;20.90;99.90;;;;;;21256528;27;19918;-76
2023/08/24 03:09:36;;;;;;;;;;;20.80;99.90;;;;;;21238348;27;19927;-76
2023/08/24 03:19:37;;;;;;;;;;;20.90;99.90;;;;;;21235168;27;19933;-76
2023/08/24 03:29:38;;;;;;;;;;;20.80;99.90;;;;;;21254017;27;19955;-76
2023/08/24 03:39:39;;;;;;;;;;;20.80;99.90;;;;;;21158991;28;19918;-76
2023/08/24 03:49:41;;;;;;;;;;;20.70;99.90;;;;;;21151428;28;19920;-76
2023/08/24 03:59:42;;;;;;;;;;;20.90;99.90;;;;;;21167576;28;19912;-76
2023/08/24 04:09:45;;;;;;;;;;;20.90;99.90;;;;;;21222187;27;19919;-76
2023/08/24 04:19:46;;;;;;;;;;;20.80;99.90;;;;;;21248745;27;19915;-79
2023/08/24 04:29:46;;;;;;;;;;;20.60;99.90;;;;;;21289479;27;19940;-78
2023/08/24 04:39:47;;;;;;;;;;;20.60;99.90;;;;;;21308659;27;19915;-78
2023/08/24 04:49:48;;;;;;;;;;;20.50;99.90;;;;;;21274425;27;19915;-78
2023/08/24 04:59:48;;;;;;;;;;;20.50;99.90;;;;;;21285168;27;20009;-78
2023/08/24 05:09:49;;;;;;;;;;;20.60;99.90;;;;;;21302134;27;20301;-79
2023/08/24 05:19:53;;;;;;;;;;;20.80;99.90;;;;;;21296881;27;19918;-79
2023/08/24 05:29:54;;;;;;;;;;;20.80;99.90;;;;;;21260150;27;19916;-79
2023/08/24 05:39:54;;;;;;;;;;;20.90;99.90;;;;;;21243718;27;19918;-79
2023/08/24 05:49:55;;;;;;;;;;;21.20;99.90;;;;;;21284506;27;19915;-81
2023/08/24 05:59:56;;;;;;;;;;;21.40;99.90;;;;;;21241549;27;20277;-81
2023/08/24 06:09:56;;;;;;;;;;;21.90;99.90;;;;;;21290323;27;20383;-80
2023/08/24 06:19:57;;;;;;;;;;;22.30;99.90;;;;;;21283488;27;19915;-76
2023/08/24 06:29:58;;;;;;;;;;;22.40;99.90;;;;;;21294318;27;20432;-81
2023/08/24 06:39:58;;;;;;;;;;;22.90;99.90;;;;;;21264439;27;19934;-80
2023/08/24 06:50:00;;;;;;;;;;;22.90;99.90;;;;;;21247404;27;19968;-80
2023/08/24 07:00:00;;;;;;;;;;;22.80;99.90;;;;;;21277538;27;19943;-79
2023/08/24 07:10:01;;;;;;;;;;;23.20;99.90;;;;;;21276280;27;20397;-80
2023/08/24 07:20:04;;;;;;;;;;;24.20;99.90;;;;;;21274415;27;19919;-80
2023/08/24 07:30:05;;;;;;;;;;;25.20;99.90;;;;;;21283731;27;19911;-80
2023/08/24 07:40:08;;;;;;;;;;;25.00;99.90;;;;;;21271513;27;19911;-80
2023/08/24 07:50:10;;;;;;;;;;;25.90;99.90;;;;;;21274181;27;19967;-81
2023/08/24 08:00:13;;;;;;;;;;;26.50;99.90;;;;;;21232286;27;19912;-80
2023/08/24 08:10:15;;;;;;;;;;;27.90;99.90;;;;;;21263435;27;19933;-77
2023/08/24 08:20:15;;;;;;;;;;;28.50;99.90;;;;;;21267369;27;19918;-81
2023/08/24 08:30:16;;;;;;;;;;;28.80;99.90;;;;;;21244561;27;20007;-78
2023/08/24 08:40:17;;;;;;;;;;;30.00;99.90;;;;;;21242076;27;19915;-81
2023/08/24 08:50:18;;;;;;;;;;;30.40;99.90;;;;;;21265575;27;19923;-81
2023/08/24 09:00:18;;;;;;;;;;;30.50;99.90;;;;;;21264900;27;20315;-79
2023/08/24 09:10:19;;;;;;;;;;;30.10;99.90;;;;;;21270957;27;20086;-80
2023/08/24 09:20:20;;;;;;;;;;;30.30;99.90;;;;;;21261414;27;19911;-79
2023/08/24 09:30:21;;;;;;;;;;;31.50;99.90;;;;;;21261178;27;19912;-81
2023/08/24 09:40:26;;;;;;;;;;;32.20;99.90;;;;;;21260613;27;19911;-80
2023/08/24 09:50:27;;;;;;;;;;;33.10;99.90;;;;;;21261317;27;19941;-79
2023/08/24 10:00:28;;;;;;;;;;;33.20;99.90;;;;;;21244851;27;20282;-77
2023/08/24 10:10:29;;;;;;;;;;;34.30;99.90;;;;;;21244019;27;19911;-77
2023/08/24 10:20:30;;;;;;;;;;;35.30;98.10;;;;;;21243252;27;19915;-77
2023/08/24 10:30:31;;;;;;;;;;;35.50;97.80;;;;;;21259279;27;19946;-76
2023/08/24 10:40:35;;;;;;;;;;;35.00;97.90;;;;;;21264350;27;19915;-76
2023/08/24 10:50:37;;;;;;;;;;;35.10;97.50;;;;;;21259347;27;19923;-76
2023/08/24 11:00:39;;;;;;;;;;;35.40;97.70;;;;;;21248624;27;19981;-76
2023/08/24 11:10:40;;;;;;;;;;;36.30;95.10;;;;;;21239047;27;20422;-76
2023/08/24 11:20:44;;;;;;;;;;;36.60;94.30;;;;;;21255542;27;19923;-76
2023/08/24 11:30:45;;;;;;;;;;;35.70;94.00;;;;;;21257055;27;19918;-76
2023/08/24 11:40:46;;;;;;;;;;;35.70;92.40;;;;;;21261077;27;19922;-75
2023/08/24 11:50:48;;;;;;;;;;;35.40;92.80;;;;;;21224397;27;20066;-76
2023/08/24 12:00:48;;;;;;;;;;;35.00;92.60;;;;;;21226022;27;19923;-77
2023/08/24 12:10:49;;;;;;;;;;;35.90;92.50;;;;;;21234594;27;19954;-77
2023/08/24 12:20:50;;;;;;;;;;;36.20;91.50;;;;;;21216895;27;19944;-76
2023/08/24 12:30:51;;;;;;;;;;;36.00;90.50;;;;;;21186132;27;20348;-76
2023/08/24 12:40:52;;;;;;;;;;;36.20;88.20;;;;;;21218888;27;19922;-78
2023/08/24 12:50:53;;;;;;;;;;;36.10;87.60;;;;;;21274016;27;20339;-76
2023/08/24 13:00:53;;;;;;;;;;;36.90;88.60;;;;;;21247831;27;19915;-77
2023/08/24 13:10:54;;;;;;;;;;;37.10;88.60;;;;;;21244459;27;19936;-76
2023/08/24 13:20:54;;;;;;;;;;;36.70;86.50;;;;;;21273869;27;20430;-76
2023/08/24 13:30:55;;;;;;;;;;;36.90;85.80;;;;;;21278499;27;19911;-77
2023/08/24 13:40:57;;;;;;;;;;;37.30;83.10;;;;;;21267754;27;21434;-76
2023/08/24 13:50:58;;;;;;;;;;;37.10;85.50;;;;;;21296271;27;19919;-76
2023/08/24 14:00:59;;;;;;;;;;;37.30;86.50;;;;;;21352998;27;19923;-77
2023/08/24 14:11:00;;;;;;;;;;;37.10;86.10;;;;;;21274450;27;19911;-74
2023/08/24 14:21:00;;;;;;;;;;;37.60;85.20;;;;;;21292063;27;19956;-76
2023/08/24 14:31:01;;;;;;;;;;;38.10;85.60;;;;;;21349797;27;19911;-77
2023/08/24 14:41:01;;;;;;;;;;;37.50;85.40;;;;;;21329160;27;19915;-77
2023/08/24 14:51:02;;;;;;;;;;;38.10;85.90;;;;;;21299663;27;19927;-78
2023/08/24 15:01:03;;;;;;;;;;;38.10;83.40;;;;;;21896042;22;19924;-76
2023/08/24 15:11:04;;;;;;;;;;;38.50;83.50;;;;;;21062371;28;19916;-77
2023/08/24 15:21:04;;;;;;;;;;;38.20;85.20;;;;;;21055305;28;19946;-76
2023/08/24 15:31:05;;;;;;;;;;;37.90;85.50;;;;;;21065394;28;19919;-77
2023/08/24 15:41:06;;;;;;;;;;;37.50;87.20;;;;;;21082418;28;19916;-76
2023/08/24 15:51:06;;;;;;;;;;;37.30;87.40;;;;;;21080976;28;19959;-77
2023/08/24 16:01:07;;;;;;;;;;;36.40;92.40;;;;;;21080344;28;20356;-76
2023/08/24 16:11:11;;;;;;;;;;;35.20;96.80;;;;;;21076611;28;19912;-77
2023/08/24 16:21:12;;;;;;;;;;;34.40;99.20;;;;;;21068297;22;20386;-77
2023/08/24 16:31:13;;;;;;;;;;;34.00;99.90;;;;;;20971394;28;19928;-74
2023/08/24 16:41:13;;;;;;;;;;;33.30;99.90;;;;;;20934110;28;19928;-74
2023/08/24 16:51:14;;;;;;;;;;;32.90;99.90;;;;;;20948357;28;19939;-74
2023/08/24 17:01:15;;;;;;;;;;;32.90;99.90;;;;;;20941221;28;20011;-77
2023/08/24 17:11:15;;;;;;;;;;;29.30;99.90;;;;;;20978353;28;20003;-77
2023/08/24 17:21:16;;;;;;;;;;;27.40;99.90;;;;;;20958470;28;20007;-76
2023/08/24 17:31:17;;;;;;;;;;;27.20;99.90;;;;;;20956452;28;20003;-76
2023/08/24 17:41:18;;;;;;;;;;;26.50;99.90;;;;;;20930245;28;19931;-75
2023/08/24 17:51:18;;;;;;;;;;;24.40;99.90;;;;;;20909067;28;20298;-77
2023/08/24 18:01:19;;;;;;;;;;;23.70;99.90;;;;;;20889860;28;20019;-75
2023/08/24 18:11:20;;;;;;;;;;;23.30;99.90;;;;;;20888257;28;19919;-75
2023/08/24 18:21:20;;;;;;;;;;;22.40;99.90;;;;;;20905111;28;20015;-75
2023/08/24 18:31:24;;;;;;;;;;;22.00;99.90;;;;;;20906803;28;19947;-77
2023/08/24 18:41:24;;;;;;;;;;;22.40;99.90;;;;;;20888773;28;19952;-77
2023/08/24 18:51:25;;;;;;;;;;;22.60;99.90;;;;;;20903098;28;19917;-76
2023/08/24 19:01:25;;;;;;;;;;;22.10;99.90;;;;;;20920364;28;20008;-76
2023/08/24 19:11:26;;;;;;;;;;;21.90;99.90;;;;;;20921965;28;19916;-75
2023/08/24 19:21:28;;;;;;;;;;;21.40;99.90;;;;;;20899809;28;20058;-76
2023/08/24 19:31:28;;;;;;;;;;;21.40;99.90;;;;;;20917978;28;19912;-76
2023/08/24 19:41:29;;;;;;;;;;;21.50;99.90;;;;;;20898935;28;19991;-76
2023/08/24 19:51:30;;;;;;;;;;;21.50;99.90;;;;;;20988365;28;19912;-77
2023/08/24 20:01:31;;;;;;;;;;;21.90;99.90;;;;;;20997602;28;19939;-77
2023/08/24 20:11:32;;;;;;;;;;;21.50;99.90;;;;;;20979771;28;19913;-77
2023/08/24 20:21:32;;;;;;;;;;;21.70;99.90;;;;;;20941536;28;19916;-76
2023/08/24 20:31:33;;;;;;;;;;;21.70;99.90;;;;;;20913714;28;19916;-76
2023/08/24 20:41:33;;;;;;;;;;;21.20;99.90;;;;;;20912942;28;19917;-76
2023/08/24 20:51:34;;;;;;;;;;;21.30;99.90;;;;;;20911753;28;19921;-77
2023/08/24 21:01:35;;;;;;;;;;;21.20;99.90;;;;;;20900259;28;19938;-77
2023/08/24 21:11:35;;;;;;;;;;;21.30;99.90;;;;;;20909992;28;19948;-77
2023/08/24 21:21:36;;;;;;;;;;;21.40;99.90;;;;;;20908761;28;19931;-77
2023/08/24 21:31:37;;;;;;;;;;;21.40;99.90;;;;;;20910779;28;20264;-77
2023/08/24 21:41:37;;;;;;;;;;;21.20;99.90;;;;;;20908389;28;20387;-77
2023/08/24 21:51:38;;;;;;;;;;;21.00;99.90;;;;;;20889774;28;20350;-76
2023/08/24 22:01:39;;;;;;;;;;;20.90;99.90;;;;;;20907374;28;19917;-76
2023/08/24 22:11:39;;;;;;;;;;;21.20;99.90;;;;;;20906748;28;19919;-76
2023/08/24 22:21:40;;;;;;;;;;;21.00;99.90;;;;;;20922021;22;20401;-77
2023/08/24 22:31:41;;;;;;;;;;;21.10;99.90;;;;;;20921667;28;19913;-78
2023/08/24 22:41:41;;;;;;;;;;;21.00;99.90;;;;;;20905468;28;20303;-77
2023/08/24 22:51:42;;;;;;;;;;;20.50;99.90;;;;;;20921353;28;19919;-77
2023/08/24 23:01:43;;;;;;;;;;;20.50;99.90;;;;;;20920644;28;20290;-76
2023/08/24 23:11:43;;;;;;;;;;;20.50;99.90;;;;;;20920118;28;19920;-76
2023/08/24 23:21:44;;;;;;;;;;;20.30;99.90;;;;;;20919109;28;20319;-76
2023/08/24 23:31:44;;;;;;;;;;;19.90;99.90;;;;;;20918545;28;19967;-77
2023/08/24 23:41:46;;;;;;;;;;;20.00;99.90;;;;;;20917361;28;19917;-76
2023/08/24 23:51:46;;;;;;;;;;;20.00;99.90;;;;;;20916714;28;20379;-77
